createdAt,value
2023-04-19T00:01:20.319Z,3.33
2023-04-19T00:03:47.843Z,2.08
2023-04-19T00:06:15.825Z,5.22
2023-04-19T00:08:43.968Z,4.55
2023-04-19T00:11:11.303Z,3.13
2023-04-19T00:13:38.718Z,2.40
2023-04-19T00:16:06.275Z,2.67
2023-04-19T00:18:33.798Z,4.32
2023-04-19T00:21:02.276Z,13.18
2023-04-19T00:23:29.504Z,8.75
2023-04-19T00:25:56.863Z,6.38
2023-04-19T00:28:25.733Z,4.03
2023-04-19T00:30:53.235Z,7.85
2023-04-19T00:33:20.363Z,3.70
2023-04-19T00:35:49.067Z,7.43
2023-04-19T00:38:16.174Z,3.75
2023-04-19T00:40:46.381Z,11.02
2023-04-19T00:43:20.660Z,12.05
2023-04-19T00:45:48.125Z,8.25
2023-04-19T00:48:15.900Z,3.15
2023-04-19T00:50:43.882Z,7.00
2023-04-19T00:53:11.292Z,8.18
2023-04-19T00:55:39.118Z,10.00
2023-04-19T00:58:07.338Z,9.00
2023-04-19T01:00:35.613Z,17.98
2023-04-19T01:03:03.547Z,19.85
2023-04-19T01:05:31.117Z,9.15
2023-04-19T01:07:58.313Z,14.75
2023-04-19T01:10:25.723Z,3.47
2023-04-19T01:12:53.044Z,12.70
2023-04-19T01:15:20.391Z,8.43
2023-04-19T01:17:49.772Z,12.85
2023-04-19T01:20:17.022Z,10.18
2023-04-19T01:22:44.700Z,23.33
2023-04-19T01:25:12.511Z,29.33
2023-04-19T01:27:44.411Z,23.27
2023-04-19T01:30:11.938Z,28.70
2023-04-19T01:32:39.374Z,22.55
2023-04-19T01:35:07.144Z,18.75
2023-04-19T01:37:37.768Z,14.38
2023-04-19T01:40:05.690Z,22.15
2023-04-19T01:42:32.979Z,12.07
2023-04-19T01:45:01.088Z,11.88
2023-04-19T01:47:28.599Z,14.40
2023-04-19T01:49:56.035Z,16.92
2023-04-19T01:52:23.478Z,23.13
2023-04-19T01:54:50.592Z,15.73
2023-04-19T01:57:18.713Z,13.32
2023-04-19T01:59:47.597Z,18.02
2023-04-19T02:02:14.822Z,18.73
2023-04-19T02:04:42.528Z,16.83
2023-04-19T02:07:09.578Z,17.25
2023-04-19T02:09:37.737Z,22.75
2023-04-19T02:12:05.876Z,11.77
2023-04-19T02:14:33.496Z,18.95
2023-04-19T02:17:01.099Z,13.40
2023-04-19T02:19:28.112Z,16.23
2023-04-19T02:21:57.490Z,18.58
2023-04-19T02:24:24.998Z,17.15
2023-04-19T02:26:52.316Z,21.80
2023-04-19T02:29:19.758Z,15.27
2023-04-19T02:31:47.058Z,17.80
2023-04-19T02:34:14.382Z,26.88
2023-04-19T02:36:41.647Z,21.33
2023-04-19T02:39:08.677Z,22.42
2023-04-19T02:41:38.965Z,21.80
2023-04-19T02:44:06.192Z,25.20
2023-04-19T02:46:34.488Z,17.80
2023-04-19T02:49:02.710Z,21.45
2023-04-19T02:51:30.789Z,21.73
2023-04-19T02:53:58.370Z,29.67
2023-04-19T02:56:26.124Z,19.05
2023-04-19T02:58:54.780Z,17.83
2023-04-19T03:01:22.137Z,20.75
2023-04-19T03:03:49.319Z,16.70
2023-04-19T03:06:17.299Z,24.58
2023-04-19T03:08:44.824Z,10.43
2023-04-19T03:11:12.536Z,15.48
2023-04-19T03:13:40.522Z,25.75
2023-04-19T03:16:08.157Z,22.33
2023-04-19T03:18:36.915Z,11.40
2023-04-19T03:21:05.277Z,11.18
2023-04-19T03:23:41.078Z,17.98
2023-04-19T03:26:09.444Z,12.88
2023-04-19T03:28:41.737Z,17.50
2023-04-19T03:31:14.956Z,10.23
2023-04-19T03:33:42.232Z,13.90
2023-04-19T03:36:10.952Z,12.13
2023-04-19T03:38:40.537Z,10.45
2023-04-19T03:41:23.388Z,17.58
2023-04-19T03:44:00.260Z,23.90
2023-04-19T03:46:31.252Z,14.48
2023-04-19T03:48:59.740Z,17.98
2023-04-19T03:51:28.313Z,14.48
2023-04-19T03:53:55.619Z,12.40
2023-04-19T03:56:23.098Z,11.90
2023-04-19T03:58:52.020Z,12.50
2023-04-19T04:01:22.545Z,11.68
2023-04-19T04:03:50.939Z,12.82
2023-04-19T04:06:19.355Z,14.05
2023-04-19T04:08:47.687Z,22.20
2023-04-19T04:11:15.220Z,22.85
2023-04-19T04:13:43.514Z,11.65
2023-04-19T04:16:15.966Z,13.43
2023-04-19T04:18:43.523Z,12.15
2023-04-19T04:21:14.307Z,9.07
2023-04-19T04:23:45.192Z,13.38
2023-04-19T04:26:19.819Z,12.35
2023-04-19T04:29:06.081Z,13.63
2023-04-19T04:31:36.230Z,13.70
2023-04-19T04:34:03.930Z,13.95
2023-04-19T04:36:34.005Z,21.00
2023-04-19T04:39:01.911Z,10.77
2023-04-19T04:41:31.188Z,12.20
2023-04-19T04:44:22.956Z,19.08
2023-04-19T04:46:48.372Z,8.93
2023-04-19T04:49:21.476Z,12.30
2023-04-19T04:51:48.974Z,12.98
2023-04-19T04:54:17.038Z,17.88
2023-04-19T04:56:46.030Z,12.15
2023-04-19T04:59:14.139Z,11.60
2023-04-19T05:01:44.388Z,8.85
2023-04-19T05:04:12.847Z,10.05
2023-04-19T05:06:44.490Z,12.30
2023-04-19T05:09:12.836Z,10.48
2023-04-19T05:11:40.131Z,11.63
2023-04-19T05:14:07.329Z,12.05
2023-04-19T05:16:34.955Z,11.27
2023-04-19T05:19:03.463Z,8.05
2023-04-19T05:21:35.162Z,8.95
2023-04-19T05:24:05.488Z,7.35
2023-04-19T05:26:35.099Z,5.95
2023-04-19T05:29:04.044Z,5.47
2023-04-19T05:32:03.711Z,16.35
2023-04-19T05:34:36.534Z,12.80
2023-04-19T05:37:05.176Z,5.38
2023-04-19T05:39:32.538Z,11.60
2023-04-19T05:42:00.249Z,5.00
2023-04-19T05:44:27.667Z,5.22
2023-04-19T05:46:55.045Z,5.35
2023-04-19T05:49:43.127Z,8.68
2023-04-19T05:52:27.169Z,8.88
2023-04-19T05:54:56.781Z,9.55
2023-04-19T05:57:24.756Z,7.68
2023-04-19T05:59:52.204Z,10.85
2023-04-19T06:02:23.586Z,9.00
2023-04-19T06:04:51.174Z,12.57
2023-04-19T06:07:31.026Z,6.50
2023-04-19T06:10:00.036Z,20.65
2023-04-19T06:12:27.656Z,11.65
2023-04-19T06:14:55.322Z,4.70
2023-04-19T06:17:24.455Z,9.13
2023-04-19T06:19:52.472Z,14.93
2023-04-19T06:22:20.156Z,9.23
2023-04-19T06:24:47.630Z,12.27
2023-04-19T06:27:16.224Z,11.13
2023-04-19T06:29:43.559Z,7.55
2023-04-19T06:32:11.288Z,6.97
2023-04-19T06:34:38.293Z,6.13
2023-04-19T06:37:05.291Z,11.07
2023-04-19T06:39:32.665Z,8.80
2023-04-19T06:42:00.062Z,12.48
2023-04-19T06:44:28.810Z,4.68
2023-04-19T06:46:55.962Z,5.85
2023-04-19T06:49:23.414Z,6.15
2023-04-19T06:51:50.533Z,6.90
2023-04-19T06:54:18.472Z,9.65
2023-04-19T06:56:47.834Z,6.00
2023-04-19T06:59:19.215Z,8.15
2023-04-19T07:01:47.332Z,5.25
2023-04-19T07:04:15.687Z,5.13
2023-04-19T07:06:43.352Z,6.90
2023-04-19T07:09:10.933Z,9.85
2023-04-19T07:11:38.351Z,9.40
2023-04-19T07:14:05.730Z,9.40
2023-04-19T07:16:33.559Z,7.88
2023-04-19T07:19:00.880Z,7.68
2023-04-19T07:21:30.473Z,6.72
2023-04-19T07:23:57.886Z,8.73
2023-04-19T07:26:25.392Z,10.73
2023-04-19T07:28:52.651Z,12.60
2023-04-19T07:31:21.005Z,6.95
2023-04-19T07:33:48.511Z,7.45
2023-04-19T07:36:15.837Z,7.40
2023-04-19T07:38:43.304Z,9.30
2023-04-19T07:41:10.462Z,13.73
2023-04-19T07:43:39.172Z,7.47
2023-04-19T07:46:11.180Z,7.90
2023-04-19T07:48:38.658Z,12.90
2023-04-19T07:51:12.283Z,11.20
2023-04-19T07:53:40.503Z,8.43
2023-04-19T07:56:08.179Z,21.13
2023-04-19T07:58:39.256Z,13.35
2023-04-19T08:01:06.920Z,15.48
2023-04-19T08:03:34.398Z,9.02
2023-04-19T08:06:02.792Z,9.15
2023-04-19T08:08:30.928Z,7.70
2023-04-19T08:10:59.605Z,8.05
2023-04-19T08:13:29.677Z,6.88
2023-04-19T08:18:27.535Z,10.77
2023-04-19T08:20:56.134Z,10.68
2023-04-19T08:23:29.491Z,7.82
2023-04-19T08:26:02.186Z,9.95
2023-04-19T08:28:29.796Z,11.52
2023-04-19T08:30:58.500Z,9.98
2023-04-19T08:33:25.640Z,12.85
2023-04-19T08:35:53.102Z,13.07
2023-04-19T08:38:20.289Z,12.90
2023-04-19T08:40:53.309Z,9.80
2023-04-19T08:43:20.517Z,14.00
2023-04-19T08:45:51.280Z,12.43
2023-04-19T08:48:18.445Z,13.38
2023-04-19T08:51:03.576Z,12.88
2023-04-19T08:53:34.175Z,11.35
2023-04-19T09:01:07.410Z,11.90
2023-04-19T09:03:44.285Z,13.77
2023-04-19T09:06:15.387Z,10.13
2023-04-19T09:08:42.648Z,14.00
2023-04-19T09:11:09.720Z,11.05
2023-04-19T09:13:38.796Z,9.95
2023-04-19T09:16:08.084Z,12.48
2023-04-19T09:18:45.582Z,9.10
2023-04-19T09:21:30.797Z,8.15
2023-04-19T09:23:58.094Z,13.60
2023-04-19T09:26:29.288Z,10.52
2023-04-19T09:29:04.119Z,24.02
2023-04-19T09:31:50.993Z,8.63
2023-04-19T09:34:19.171Z,15.77
2023-04-19T09:36:47.064Z,14.90
2023-04-19T09:39:15.191Z,16.80
2023-04-19T09:41:55.114Z,13.63
2023-04-19T09:46:53.568Z,8.10
2023-04-19T09:49:37.509Z,11.05
2023-04-19T09:52:13.636Z,12.73
2023-04-19T09:54:41.244Z,8.60
2023-04-19T09:57:08.244Z,12.02
2023-04-19T09:59:35.859Z,14.02
2023-04-19T10:02:03.378Z,12.27
2023-04-19T10:04:44.159Z,9.60
2023-04-19T10:07:30.134Z,8.90
2023-04-19T10:10:11.847Z,14.43
2023-04-19T10:13:07.567Z,10.30
2023-04-19T10:18:08.238Z,9.30
2023-04-19T10:21:01.975Z,14.50
2023-04-19T10:23:29.409Z,10.68
2023-04-19T10:25:57.417Z,16.73
2023-04-19T10:28:25.312Z,23.35
2023-04-19T10:30:54.240Z,13.18
2023-04-19T10:33:26.107Z,15.63
2023-04-19T10:35:56.533Z,11.00
2023-04-19T10:38:37.049Z,12.15
2023-04-19T10:41:05.144Z,14.18
2023-04-19T10:43:36.623Z,18.83
2023-04-19T10:46:17.332Z,17.90
2023-04-19T10:48:54.948Z,12.27
2023-04-19T10:51:44.321Z,9.52
2023-04-19T10:54:31.576Z,8.88
2023-04-19T10:57:04.495Z,12.70
2023-04-19T10:59:36.377Z,17.38
2023-04-19T11:02:04.994Z,8.60
2023-04-19T11:04:32.793Z,20.10
2023-04-19T11:07:07.311Z,15.65
2023-04-19T11:09:41.365Z,6.18
2023-04-19T11:12:14.366Z,6.68
2023-04-19T11:14:43.348Z,14.40
2023-04-19T11:17:30.743Z,8.45
2023-04-19T11:20:02.235Z,6.32
2023-04-19T11:22:39.319Z,6.03
2023-04-19T11:25:22.291Z,12.93
2023-04-19T11:27:52.055Z,13.30
2023-04-19T11:30:22.389Z,12.25
2023-04-19T11:32:53.663Z,14.90
2023-04-19T11:35:21.782Z,36.67
2023-04-19T11:37:49.889Z,16.67
2023-04-19T11:40:18.386Z,12.75
2023-04-19T11:42:45.677Z,6.10
2023-04-19T11:45:25.911Z,9.10
2023-04-19T11:47:56.691Z,9.25
2023-04-19T11:50:38.393Z,16.25
2023-04-19T11:53:19.206Z,12.75
2023-04-19T11:55:57.869Z,19.40
2023-04-19T11:58:44.717Z,31.60
2023-04-19T12:01:13.444Z,21.00
2023-04-19T12:03:44.471Z,16.92
2023-04-19T12:06:14.821Z,14.15
2023-04-19T12:08:50.036Z,12.20
2023-04-19T12:11:24.088Z,6.32
2023-04-19T12:14:10.041Z,6.47
2023-04-19T12:16:37.359Z,11.90
2023-04-19T12:19:18.859Z,15.60
2023-04-19T12:21:46.492Z,12.98
2023-04-19T12:24:15.863Z,11.38
2023-04-19T12:26:56.696Z,4.30
2023-04-19T12:29:24.579Z,5.20
2023-04-19T12:31:51.960Z,6.90
2023-04-19T12:34:19.413Z,6.53
2023-04-19T12:36:46.822Z,14.63
2023-04-19T12:39:14.755Z,16.15
2023-04-19T12:41:42.217Z,13.38
2023-04-19T12:44:09.258Z,11.95
2023-04-19T12:46:36.748Z,12.65
2023-04-19T12:49:04.251Z,13.85
2023-04-19T12:51:32.399Z,4.90
2023-04-19T12:54:00.186Z,18.55
2023-04-19T12:56:27.931Z,5.75
2023-04-19T12:58:54.966Z,9.48
2023-04-19T13:01:23.514Z,7.40
2023-04-19T13:03:51.270Z,4.60
2023-04-19T13:06:18.942Z,10.95
2023-04-19T13:08:47.787Z,28.20
2023-04-19T13:11:15.736Z,23.73
2023-04-19T13:13:43.315Z,15.18
2023-04-19T13:16:10.735Z,14.25
2023-04-19T13:18:38.110Z,29.15
2023-04-19T13:21:08.084Z,24.27
2023-04-19T13:23:35.950Z,7.65
2023-04-19T13:26:03.718Z,5.97
2023-04-19T13:28:30.878Z,10.00
2023-04-19T13:30:58.140Z,8.55
2023-04-19T13:33:26.642Z,3.13
2023-04-19T13:35:54.412Z,10.35
2023-04-19T13:38:22.736Z,15.65
2023-04-19T13:40:49.882Z,8.07
2023-04-19T13:43:17.602Z,11.63
2023-04-19T13:45:45.073Z,9.52
2023-04-19T13:48:12.167Z,9.35
2023-04-19T13:50:39.597Z,8.35
2023-04-19T13:53:07.157Z,11.15
2023-04-19T13:55:34.579Z,9.35
2023-04-19T13:58:02.218Z,13.93
2023-04-19T14:00:29.305Z,14.23
2023-04-19T14:02:57.001Z,11.95
2023-04-19T14:05:24.615Z,9.90
2023-04-19T14:07:52.568Z,13.18
2023-04-19T14:10:19.744Z,12.50
2023-04-19T14:12:47.782Z,6.78
2023-04-19T14:15:15.199Z,10.45
2023-04-19T14:17:42.759Z,5.28
2023-04-19T14:20:13.687Z,9.50
2023-04-19T14:22:41.115Z,7.70
2023-04-19T14:25:08.592Z,7.95
2023-04-19T14:27:36.067Z,4.35
2023-04-19T14:30:03.651Z,9.73
2023-04-19T14:34:59.228Z,7.68
2023-04-19T14:37:26.639Z,13.57
2023-04-19T14:39:53.726Z,17.30
2023-04-19T14:42:22.641Z,17.52
2023-04-19T14:44:51.811Z,14.15
2023-04-19T14:47:19.239Z,8.02
2023-04-19T14:49:46.702Z,23.10
2023-04-19T14:52:14.100Z,14.18
2023-04-19T14:54:42.020Z,10.63
2023-04-19T14:57:09.500Z,11.95
2023-04-19T14:59:37.149Z,12.05
2023-04-19T15:02:04.471Z,10.80
2023-04-19T15:04:37.256Z,7.22
2023-04-19T15:07:07.375Z,9.85
2023-04-19T15:09:34.810Z,6.70
2023-04-19T15:12:02.662Z,12.68
2023-04-19T15:14:29.937Z,2.80
2023-04-19T15:16:56.955Z,2.45
2023-04-19T15:19:24.505Z,2.35
2023-04-19T15:21:51.829Z,4.78
2023-04-19T15:24:19.249Z,3.22
2023-04-19T15:26:46.930Z,3.00
2023-04-19T15:29:14.657Z,5.63
2023-04-19T15:31:42.251Z,8.05
2023-04-19T15:34:09.439Z,10.88
2023-04-19T15:36:40.612Z,5.78
2023-04-19T15:39:08.156Z,9.18
2023-04-19T15:41:35.533Z,8.55
2023-04-19T15:44:02.886Z,2.88
2023-04-19T15:46:30.295Z,2.67
2023-04-19T15:48:58.052Z,5.55
2023-04-19T15:51:25.350Z,5.07
2023-04-19T15:53:52.718Z,9.15
2023-04-19T15:56:20.665Z,6.30
2023-04-19T15:58:47.980Z,3.53
2023-04-19T16:01:16.397Z,3.13
2023-04-19T16:03:46.102Z,4.65
2023-04-19T16:06:13.485Z,7.88
2023-04-19T16:08:41.169Z,4.18
2023-04-19T16:11:08.367Z,3.55
2023-04-19T16:13:35.468Z,6.75
2023-04-19T16:16:03.252Z,10.43
2023-04-19T16:18:30.693Z,14.93
2023-04-19T16:20:58.295Z,17.25
2023-04-19T16:23:25.744Z,19.67
2023-04-19T16:25:53.789Z,18.13
2023-04-19T16:28:22.659Z,14.85
2023-04-19T16:30:49.843Z,12.65
2023-04-19T16:33:17.479Z,16.95
2023-04-19T16:35:44.907Z,12.48
2023-04-19T16:38:12.297Z,13.65
2023-04-19T16:40:40.034Z,16.55
2023-04-19T16:43:07.150Z,22.42
2023-04-19T16:45:34.910Z,16.65
2023-04-19T16:48:02.402Z,16.13
2023-04-19T16:50:29.847Z,18.55
2023-04-19T16:52:57.023Z,12.27
2023-04-19T16:55:24.281Z,14.23
2023-04-19T16:57:53.705Z,15.48
2023-04-19T17:00:21.788Z,12.73
2023-04-19T17:02:49.427Z,7.90
2023-04-19T17:05:16.619Z,4.82
2023-04-19T17:07:43.864Z,6.43
2023-04-19T17:10:11.446Z,5.93
2023-04-19T17:12:39.178Z,8.35
2023-04-19T17:15:06.468Z,14.90
2023-04-19T17:17:33.610Z,30.35
2023-04-19T17:20:01.302Z,34.30
2023-04-19T17:22:28.541Z,39.10
2023-04-19T17:24:57.183Z,43.10
2023-04-19T17:27:25.026Z,53.70
2023-04-19T17:29:52.466Z,46.40
2023-04-19T17:32:19.490Z,45.30
2023-04-19T17:34:46.950Z,45.78
2023-04-19T17:37:14.473Z,42.22
2023-04-19T17:39:41.594Z,39.78
2023-04-19T17:42:09.124Z,33.30
2023-04-19T17:44:36.353Z,37.90
2023-04-19T17:47:03.734Z,35.10
2023-04-19T17:49:30.869Z,36.53
2023-04-19T17:51:58.455Z,29.33
2023-04-19T17:54:25.686Z,26.25
2023-04-19T17:56:53.053Z,27.55
2023-04-19T17:59:20.248Z,27.88
2023-04-19T18:01:47.654Z,32.88
2023-04-19T18:04:17.627Z,29.35
2023-04-19T18:06:48.701Z,26.85
2023-04-19T18:09:19.166Z,27.73
2023-04-19T18:11:47.472Z,27.20
2023-04-19T18:14:15.068Z,23.70
2023-04-19T18:16:42.079Z,26.08
2023-04-19T18:19:09.850Z,24.15
2023-04-19T18:21:37.524Z,25.30
2023-04-19T18:24:05.430Z,25.83
2023-04-19T18:26:40.218Z,27.90
2023-04-19T18:29:07.647Z,24.70
2023-04-19T18:31:34.696Z,26.35
2023-04-19T18:34:02.565Z,31.45
2023-04-19T18:36:30.005Z,29.00
2023-04-19T18:38:57.205Z,27.58
2023-04-19T18:41:24.719Z,28.48
2023-04-19T18:44:19.212Z,28.17
2023-04-19T18:46:39.282Z,23.65
2023-04-19T18:49:06.884Z,23.67
2023-04-19T18:51:34.251Z,26.65
2023-04-19T18:54:01.652Z,32.53
2023-04-19T18:57:03.760Z,32.70
2023-04-19T18:59:16.810Z,26.85
2023-04-19T19:01:45.405Z,32.65
2023-04-19T19:06:51.623Z,29.88
2023-04-19T19:09:22.684Z,32.10
2023-04-19T19:11:56.744Z,29.40
2023-04-19T19:14:24.773Z,26.38
2023-04-19T19:16:53.099Z,23.77
2023-04-19T19:19:22.431Z,27.67
2023-04-19T19:21:52.196Z,42.53
2023-04-19T19:24:19.550Z,35.80
2023-04-19T19:26:47.514Z,41.42
2023-04-19T19:29:16.544Z,29.85
2023-04-19T19:31:44.316Z,25.58
2023-04-19T19:34:24.173Z,22.77
2023-04-19T19:36:54.641Z,22.60
2023-04-19T19:39:22.131Z,23.45
2023-04-19T19:42:05.215Z,17.00
2023-04-19T19:44:33.697Z,22.75
2023-04-19T19:47:01.148Z,23.67
2023-04-19T19:49:28.438Z,25.27
2023-04-19T19:51:59.103Z,25.15
2023-04-19T19:54:27.296Z,28.67
2023-04-19T19:57:21.771Z,21.85
2023-04-19T19:59:50.387Z,16.67
2023-04-19T20:02:22.490Z,19.17
2023-04-19T20:04:50.781Z,21.67
2023-04-19T20:07:37.383Z,24.98
2023-04-19T20:10:08.444Z,21.95
2023-04-19T20:12:35.874Z,29.80
2023-04-19T20:15:03.556Z,26.63
2023-04-19T20:17:31.412Z,19.27
2023-04-19T20:20:00.088Z,18.95
2023-04-19T20:22:27.232Z,15.50
2023-04-19T20:24:54.528Z,19.10
2023-04-19T20:27:21.933Z,18.55
2023-04-19T20:29:49.035Z,27.23
2023-04-19T20:32:16.533Z,11.82
2023-04-19T20:34:45.978Z,15.43
2023-04-19T20:37:13.386Z,16.33
2023-04-19T20:39:40.855Z,16.45
2023-04-19T20:42:08.176Z,15.00
2023-04-19T20:44:36.159Z,13.90
2023-04-19T20:47:03.502Z,16.27
2023-04-19T20:49:30.839Z,14.15
2023-04-19T20:51:58.068Z,13.63
2023-04-19T20:54:25.885Z,19.38
2023-04-19T20:56:53.727Z,14.63
2023-04-19T20:59:21.015Z,20.63
2023-04-19T21:01:48.225Z,21.05
2023-04-19T21:04:15.924Z,16.98
2023-04-19T21:06:43.216Z,14.68
2023-04-19T21:09:10.898Z,27.42
2023-04-19T21:11:38.196Z,14.10
2023-04-19T21:14:05.602Z,16.52
2023-04-19T21:16:32.882Z,15.00
2023-04-19T21:19:00.065Z,20.95
2023-04-19T21:21:27.740Z,23.60
2023-04-19T21:23:55.143Z,17.17
2023-04-19T21:26:22.141Z,17.30
2023-04-19T21:28:49.557Z,18.33
2023-04-19T21:31:16.910Z,14.18
2023-04-19T21:33:44.338Z,14.30
2023-04-19T21:36:11.370Z,20.33
2023-04-19T21:38:38.443Z,14.13
2023-04-19T21:41:07.540Z,14.02
2023-04-19T21:43:35.448Z,17.50
2023-04-19T21:46:04.957Z,12.38
2023-04-19T21:48:32.729Z,12.65
2023-04-19T21:51:01.158Z,14.55
2023-04-19T21:53:28.592Z,18.10
2023-04-19T21:55:56.011Z,17.83
2023-04-19T21:58:23.130Z,15.40
2023-04-19T22:00:51.298Z,14.25
2023-04-19T22:03:18.548Z,13.52
2023-04-19T22:05:46.703Z,13.88
2023-04-19T22:08:14.143Z,10.30
2023-04-19T22:10:42.649Z,22.05
2023-04-19T22:13:09.695Z,16.63
2023-04-19T22:15:37.574Z,13.52
2023-04-19T22:18:05.127Z,12.35
2023-04-19T22:20:33.724Z,10.98
2023-04-19T22:23:01.129Z,10.48
2023-04-19T22:25:28.449Z,11.07
2023-04-19T22:27:55.712Z,11.30
2023-04-19T22:30:23.031Z,9.00
2023-04-19T22:32:50.850Z,8.70
2023-04-19T22:35:19.084Z,13.35
2023-04-19T22:37:47.529Z,9.00
2023-04-19T22:40:14.584Z,14.95
2023-04-19T22:42:42.154Z,11.05
2023-04-19T22:45:10.101Z,12.65
2023-04-19T22:47:37.964Z,8.77
2023-04-19T22:50:05.533Z,11.70
2023-04-19T22:52:34.635Z,13.48
2023-04-19T22:55:01.698Z,15.43
2023-04-19T22:57:28.981Z,15.27
2023-04-19T22:59:56.146Z,17.60
2023-04-19T23:02:23.511Z,22.10
2023-04-19T23:04:50.634Z,23.40
2023-04-19T23:07:20.713Z,18.38
2023-04-19T23:09:48.024Z,21.10
2023-04-19T23:12:15.469Z,15.25
2023-04-19T23:14:42.897Z,11.82
2023-04-19T23:17:10.558Z,11.80
2023-04-19T23:19:38.576Z,8.73
2023-04-19T23:22:06.096Z,26.38
2023-04-19T23:24:33.207Z,16.15
2023-04-19T23:27:01.430Z,10.27
2023-04-19T23:29:29.713Z,13.63
2023-04-19T23:31:57.847Z,10.52
2023-04-19T23:34:25.562Z,8.75
2023-04-19T23:36:52.597Z,15.30
2023-04-19T23:39:20.309Z,10.15
2023-04-19T23:41:47.807Z,11.10
2023-04-19T23:44:15.579Z,10.80
2023-04-19T23:46:42.654Z,13.02
2023-04-19T23:49:10.004Z,15.27
2023-04-19T23:51:37.296Z,16.48
2023-04-19T23:54:04.933Z,13.50
2023-04-19T23:56:32.213Z,9.02
2023-04-19T23:58:59.854Z,13.90
